createdAt,value
2022-09-10T00:00:37.574Z,17.74
2022-09-10T00:05:41.071Z,17.65
2022-09-10T00:10:45.090Z,17.61
2022-09-10T00:15:51.995Z,17.53
2022-09-10T00:20:55.407Z,17.58
2022-09-10T00:25:57.875Z,17.45
2022-09-10T00:30:59.407Z,17.55
2022-09-10T00:36:01.003Z,17.52
2022-09-10T00:41:04.841Z,17.42
2022-09-10T00:46:06.520Z,17.44
2022-09-10T00:51:08.137Z,17.47
2022-09-10T00:56:09.842Z,17.41
2022-09-10T01:01:11.546Z,17.41
2022-09-10T01:06:13.396Z,17.38
2022-09-10T01:11:42.434Z,17.37
2022-09-10T01:16:57.039Z,17.38
2022-09-10T01:22:29.481Z,17.28
2022-09-10T01:27:51.144Z,17.43
2022-09-10T01:33:02.000Z,17.22
2022-09-10T01:38:12.491Z,17.21
2022-09-10T01:43:14.930Z,17.13
2022-09-10T01:48:40.789Z,17.00
2022-09-10T01:53:56.395Z,17.06
2022-09-10T01:59:04.156Z,16.90
2022-09-10T02:04:15.246Z,17.05
2022-09-10T02:09:18.610Z,16.91
2022-09-10T02:14:21.890Z,16.75
2022-09-10T02:19:43.087Z,16.69
2022-09-10T02:24:44.809Z,16.74
2022-09-10T02:29:46.344Z,16.71
2022-09-10T02:34:48.327Z,16.56
2022-09-10T02:39:50.329Z,16.48
2022-09-10T02:44:53.532Z,16.66
2022-09-10T02:49:55.106Z,16.55
2022-09-10T02:54:57.167Z,16.47
2022-09-10T02:59:58.673Z,16.44
2022-09-10T03:05:04.902Z,16.51
2022-09-10T03:10:07.315Z,16.46
2022-09-10T03:15:09.543Z,16.38
2022-09-10T03:20:11.161Z,16.34
2022-09-10T03:25:12.706Z,16.37
2022-09-10T03:30:14.958Z,16.32
2022-09-10T03:35:16.896Z,16.11
2022-09-10T03:40:18.813Z,16.05
2022-09-10T03:45:20.353Z,16.05
2022-09-10T03:50:22.166Z,16.17
2022-09-10T03:55:25.605Z,16.23
2022-09-10T04:00:27.182Z,16.09
2022-09-10T04:05:29.534Z,16.13
2022-09-10T04:10:31.329Z,15.99
2022-09-10T04:15:33.232Z,15.90
2022-09-10T04:20:38.020Z,16.17
2022-09-10T04:25:43.682Z,16.00
2022-09-10T04:30:45.470Z,15.78
2022-09-10T04:35:47.094Z,15.74
2022-09-10T04:40:48.699Z,15.81
2022-09-10T04:45:50.405Z,15.81
2022-09-10T04:51:14.722Z,15.70
2022-09-10T04:56:17.101Z,15.76
2022-09-10T05:01:18.720Z,15.73
2022-09-10T05:06:23.427Z,16.06
2022-09-10T05:11:25.416Z,16.00
2022-09-10T05:16:27.917Z,16.02
2022-09-10T05:21:31.126Z,16.14
2022-09-10T05:26:33.078Z,16.19
2022-09-10T05:31:35.288Z,16.11
2022-09-10T05:36:37.026Z,16.36
2022-09-10T05:41:39.042Z,16.48
2022-09-10T05:46:40.653Z,16.72
2022-09-10T05:51:48.052Z,16.90
2022-09-10T05:56:51.322Z,17.01
2022-09-10T06:01:53.214Z,17.11
2022-09-10T06:06:56.579Z,17.37
2022-09-10T06:11:59.316Z,17.44
2022-09-10T06:17:01.294Z,17.65
2022-09-10T06:22:05.029Z,17.75
2022-09-10T06:27:11.759Z,17.96
2022-09-10T06:32:14.738Z,18.00
2022-09-10T06:37:18.688Z,17.98
2022-09-10T06:42:20.803Z,18.22
2022-09-10T06:48:37.201Z,18.23
2022-09-10T06:53:26.875Z,18.33
2022-09-10T06:58:30.675Z,18.40
2022-09-10T07:03:32.358Z,18.40
2022-09-10T07:08:34.086Z,18.54
2022-09-10T07:13:35.801Z,18.66
2022-09-10T07:18:38.699Z,18.77
2022-09-10T07:23:40.944Z,18.90
2022-09-10T07:28:43.702Z,18.85
2022-09-10T07:33:47.021Z,18.95
2022-09-10T07:38:52.021Z,18.84
2022-09-10T07:43:55.388Z,19.05
2022-09-10T07:49:01.395Z,19.09
2022-09-10T07:54:03.352Z,19.16
2022-09-10T07:59:11.513Z,19.20
2022-09-10T08:04:19.482Z,19.27
2022-09-10T08:09:21.287Z,19.31
2022-09-10T08:14:28.048Z,19.37
2022-09-10T08:19:30.993Z,19.41
2022-09-10T08:24:33.058Z,19.39
2022-09-10T08:29:35.006Z,19.49
2022-09-10T08:34:37.021Z,19.42
2022-09-10T08:39:41.950Z,19.49
2022-09-10T08:44:49.781Z,19.55
2022-09-10T08:50:18.808Z,19.63
2022-09-10T08:55:21.762Z,19.64
2022-09-10T09:00:27.319Z,19.81
2022-09-10T09:05:33.477Z,19.84
2022-09-10T09:10:56.036Z,19.82
2022-09-10T09:16:28.784Z,19.79
2022-09-10T09:21:40.050Z,19.84
2022-09-10T09:26:45.422Z,19.88
2022-09-10T09:31:52.572Z,19.87
2022-09-10T09:36:55.311Z,19.92
2022-09-10T09:42:08.181Z,20.01
2022-09-10T09:47:09.912Z,20.02
2022-09-10T09:52:25.011Z,20.07
2022-09-10T09:57:27.329Z,20.17
2022-09-10T10:02:30.420Z,20.17
2022-09-10T10:07:34.568Z,20.08
2022-09-10T10:12:49.043Z,20.20
2022-09-10T10:17:51.482Z,20.24
2022-09-10T10:22:52.987Z,20.39
2022-09-10T10:27:54.537Z,20.35
2022-09-10T10:32:58.350Z,20.25
2022-09-10T10:38:22.757Z,20.16
2022-09-10T10:43:42.781Z,20.13
2022-09-10T10:48:47.263Z,20.38
2022-09-10T10:54:13.386Z,20.45
2022-09-10T10:59:44.661Z,20.31
2022-09-10T11:04:50.270Z,20.20
2022-09-10T11:10:11.412Z,20.16
2022-09-10T11:15:21.262Z,20.17
2022-09-10T11:20:30.104Z,20.27
2022-09-10T11:25:40.373Z,20.31
2022-09-10T11:30:46.884Z,20.36
2022-09-10T11:36:05.587Z,20.38
2022-09-10T11:41:23.465Z,20.33
2022-09-10T11:46:46.175Z,20.31
2022-09-10T11:51:48.140Z,20.37
2022-09-10T11:57:05.211Z,20.41
2022-09-10T12:02:25.340Z,20.36
2022-09-10T12:07:49.102Z,20.44
2022-09-10T12:12:51.084Z,20.48
2022-09-10T12:18:04.511Z,20.46
2022-09-10T12:23:06.386Z,20.49
2022-09-10T12:28:43.472Z,20.69
2022-09-10T12:33:48.676Z,20.66
2022-09-10T12:39:25.230Z,20.63
2022-09-10T12:44:36.125Z,20.55
2022-09-10T12:49:57.572Z,20.58
2022-09-10T12:55:16.867Z,20.61
2022-09-10T13:00:22.629Z,20.66
2022-09-10T13:05:33.523Z,20.79
2022-09-10T13:10:35.282Z,20.91
2022-09-10T13:15:38.957Z,20.88
2022-09-10T13:20:40.559Z,20.76
2022-09-10T13:25:43.856Z,20.73
2022-09-10T13:30:45.718Z,20.66
2022-09-10T13:35:47.550Z,20.66
2022-09-10T13:41:07.179Z,20.73
2022-09-10T13:46:12.759Z,20.74
2022-09-10T13:51:36.196Z,20.67
2022-09-10T13:56:43.571Z,20.69
2022-09-10T14:01:48.632Z,20.67
2022-09-10T14:06:50.531Z,20.64
2022-09-10T14:11:52.322Z,20.63
2022-09-10T14:16:59.987Z,20.65
2022-09-10T14:22:02.101Z,20.61
2022-09-10T14:27:27.615Z,20.64
2022-09-10T14:32:33.514Z,20.65
2022-09-10T14:37:39.660Z,20.64
2022-09-10T14:42:41.270Z,20.63
2022-09-10T14:47:51.792Z,20.63
2022-09-10T14:52:54.263Z,20.61
2022-09-10T14:57:55.973Z,20.61
2022-09-10T15:02:57.587Z,20.62
2022-09-10T15:07:59.188Z,20.63
2022-09-10T15:13:00.826Z,20.61
2022-09-10T15:18:02.819Z,20.60
2022-09-10T15:23:04.398Z,20.64
2022-09-10T15:28:07.556Z,20.62
2022-09-10T15:33:13.113Z,20.64
2022-09-10T15:38:15.919Z,20.59
2022-09-10T15:43:19.286Z,20.52
2022-09-10T15:48:20.807Z,20.51
2022-09-10T15:53:22.346Z,20.47
2022-09-10T15:58:25.605Z,20.41
2022-09-10T16:03:27.124Z,20.47
2022-09-10T16:08:28.667Z,20.40
2022-09-10T16:13:30.730Z,20.33
2022-09-10T16:18:32.811Z,20.38
2022-09-10T16:23:35.057Z,20.34
2022-09-10T16:28:37.323Z,20.27
2022-09-10T16:33:38.864Z,20.26
2022-09-10T16:38:41.774Z,20.28
2022-09-10T16:43:43.936Z,20.20
2022-09-10T16:48:45.794Z,20.21
2022-09-10T16:53:56.892Z,20.16
2022-09-10T16:58:58.458Z,20.13
2022-09-10T17:04:00.230Z,20.06
2022-09-10T17:09:02.084Z,20.05
2022-09-10T17:14:03.836Z,19.97
2022-09-10T17:19:10.954Z,19.97
2022-09-10T17:24:13.333Z,19.93
2022-09-10T17:29:17.512Z,19.82
2022-09-10T17:34:24.395Z,19.73
2022-09-10T17:39:29.295Z,19.70
2022-09-10T17:44:30.818Z,19.57
2022-09-10T17:49:33.254Z,19.44
2022-09-10T17:54:34.837Z,19.45
2022-09-10T17:59:37.145Z,19.43
2022-09-10T18:04:38.686Z,19.28
2022-09-10T18:09:40.363Z,19.36
2022-09-10T18:14:42.147Z,19.37
2022-09-10T18:19:43.832Z,19.04
2022-09-10T18:24:45.414Z,19.04
2022-09-10T18:29:46.967Z,18.83
2022-09-10T18:34:48.620Z,18.78
2022-09-10T18:39:50.692Z,18.79
2022-09-10T18:44:52.282Z,18.80
2022-09-10T18:49:53.833Z,18.63
2022-09-10T18:54:55.480Z,18.64
2022-09-10T18:59:57.162Z,18.69
2022-09-10T19:05:11.320Z,18.56
2022-09-10T19:10:13.695Z,18.39
2022-09-10T19:15:15.325Z,18.37
2022-09-10T19:20:16.883Z,18.29
2022-09-10T19:25:18.397Z,18.38
2022-09-10T19:30:19.888Z,18.21
2022-09-10T19:35:21.465Z,18.16
2022-09-10T19:40:23.015Z,18.13
2022-09-10T19:45:26.289Z,18.06
2022-09-10T19:50:28.203Z,18.09
2022-09-10T19:55:29.926Z,18.09
2022-09-10T20:00:46.433Z,18.05
2022-09-10T20:05:49.270Z,18.02
2022-09-10T20:10:51.891Z,17.99
2022-09-10T20:15:53.858Z,18.00
2022-09-10T20:20:55.468Z,17.89
2022-09-10T20:25:57.090Z,17.92
2022-09-10T20:30:59.243Z,17.95
2022-09-10T20:36:00.926Z,17.94
2022-09-10T20:41:02.862Z,17.90
2022-09-10T20:46:05.160Z,17.87
2022-09-10T20:51:07.421Z,17.97
2022-09-10T20:56:11.627Z,17.88
2022-09-10T21:01:24.010Z,17.86
2022-09-10T21:06:28.214Z,17.79
2022-09-10T21:11:31.309Z,17.95
2022-09-10T21:16:35.256Z,17.84
2022-09-10T21:21:37.197Z,17.81
2022-09-10T21:26:40.843Z,17.73
2022-09-10T21:31:42.868Z,17.66
2022-09-10T21:36:45.303Z,17.61
2022-09-10T21:41:49.186Z,17.69
2022-09-10T21:46:51.937Z,17.59
2022-09-10T21:51:53.580Z,17.48
2022-09-10T21:56:55.921Z,17.49
2022-09-10T22:01:57.532Z,17.46
2022-09-10T22:06:59.134Z,17.43
2022-09-10T22:12:00.781Z,17.34
2022-09-10T22:17:03.274Z,17.34
2022-09-10T22:22:06.065Z,17.34
2022-09-10T22:27:07.592Z,17.29
2022-09-10T22:32:09.233Z,17.14
2022-09-10T22:37:10.751Z,17.18
2022-09-10T22:42:12.278Z,17.20
2022-09-10T22:47:13.935Z,17.13
2022-09-10T22:52:15.668Z,17.16
2022-09-10T22:57:17.461Z,17.22
2022-09-10T23:02:19.162Z,17.16
2022-09-10T23:07:21.593Z,17.15
2022-09-10T23:12:23.149Z,17.23
2022-09-10T23:17:24.854Z,17.31
2022-09-10T23:22:26.378Z,17.25
2022-09-10T23:27:28.458Z,17.12
2022-09-10T23:32:30.026Z,17.03
2022-09-10T23:37:31.758Z,17.14
2022-09-10T23:42:33.374Z,17.17
2022-09-10T23:47:34.990Z,17.19
2022-09-10T23:52:36.551Z,17.14
2022-09-10T23:57:38.907Z,16.99
